sensor_id;sensor_type;location;lat;lon;timestamp;P1;durP1;ratioP1;P2;durP2;ratioP2
11835;SDS011;5977;51.972;7.640;2022-09-06T00:02:08;164.10;;;57.37;;
11835;SDS011;5977;51.972;7.640;2022-09-06T00:04:36;163.77;;;56.63;;
11835;SDS011;5977;51.972;7.640;2022-09-06T00:07:04;163.70;;;56.70;;
11835;SDS011;5977;51.972;7.640;2022-09-06T00:09:32;163.70;;;56.83;;
11835;SDS011;5977;51.972;7.640;2022-09-06T00:12:00;164.50;;;57.50;;
11835;SDS011;5977;51.972;7.640;2022-09-06T00:14:28;165.10;;;57.70;;
11835;SDS011;5977;51.972;7.640;2022-09-06T00:16:57;164.03;;;57.13;;
11835;SDS011;5977;51.972;7.640;2022-09-06T00:19:25;163.47;;;56.67;;
11835;SDS011;5977;51.972;7.640;2022-09-06T00:21:53;165.00;;;58.30;;
11835;SDS011;5977;51.972;7.640;2022-09-06T00:24:20;164.67;;;57.50;;
11835;SDS011;5977;51.972;7.640;2022-09-06T00:26:48;164.47;;;57.43;;
11835;SDS011;5977;51.972;7.640;2022-09-06T00:29:16;165.00;;;57.60;;
11835;SDS011;5977;51.972;7.640;2022-09-06T00:31:44;165.07;;;57.40;;
11835;SDS011;5977;51.972;7.640;2022-09-06T00:34:13;164.27;;;56.67;;
11835;SDS011;5977;51.972;7.640;2022-09-06T00:36:41;163.67;;;56.53;;
11835;SDS011;5977;51.972;7.640;2022-09-06T00:39:09;163.77;;;56.57;;
11835;SDS011;5977;51.972;7.640;2022-09-06T00:41:37;163.13;;;56.17;;
11835;SDS011;5977;51.972;7.640;2022-09-06T00:44:05;163.07;;;56.07;;
11835;SDS011;5977;51.972;7.640;2022-09-06T00:46:33;163.27;;;56.43;;
11835;SDS011;5977;51.972;7.640;2022-09-06T00:49:04;164.83;;;57.80;;
11835;SDS011;5977;51.972;7.640;2022-09-06T00:51:36;163.00;;;56.37;;
11835;SDS011;5977;51.972;7.640;2022-09-06T00:54:05;164.33;;;57.07;;
11835;SDS011;5977;51.972;7.640;2022-09-06T00:56:37;163.23;;;55.90;;
11835;SDS011;5977;51.972;7.640;2022-09-06T00:59:07;163.10;;;55.53;;
11835;SDS011;5977;51.972;7.640;2022-09-06T01:01:35;164.43;;;56.87;;
11835;SDS011;5977;51.972;7.640;2022-09-06T01:04:03;163.60;;;56.70;;
11835;SDS011;5977;51.972;7.640;2022-09-06T01:06:34;164.83;;;57.47;;
11835;SDS011;5977;51.972;7.640;2022-09-06T01:09:12;163.50;;;56.20;;
11835;SDS011;5977;51.972;7.640;2022-09-06T01:11:54;164.20;;;56.70;;
11835;SDS011;5977;51.972;7.640;2022-09-06T01:14:36;164.60;;;57.13;;
11835;SDS011;5977;51.972;7.640;2022-09-06T01:17:19;164.80;;;57.07;;
11835;SDS011;5977;51.972;7.640;2022-09-06T01:20:12;165.23;;;57.37;;
11835;SDS011;5977;51.972;7.640;2022-09-06T01:26:24;164.03;;;56.27;;
11835;SDS011;5977;51.972;7.640;2022-09-06T01:29:20;164.40;;;56.57;;
11835;SDS011;5977;51.972;7.640;2022-09-06T01:31:53;163.50;;;55.97;;
11835;SDS011;5977;51.972;7.640;2022-09-06T01:34:26;163.43;;;56.00;;
11835;SDS011;5977;51.972;7.640;2022-09-06T01:36:58;163.57;;;56.37;;
11835;SDS011;5977;51.972;7.640;2022-09-06T01:39:36;163.63;;;55.77;;
11835;SDS011;5977;51.972;7.640;2022-09-06T01:42:06;164.10;;;56.70;;
11835;SDS011;5977;51.972;7.640;2022-09-06T01:44:38;164.03;;;55.73;;
11835;SDS011;5977;51.972;7.640;2022-09-06T01:47:14;163.60;;;56.47;;
11835;SDS011;5977;51.972;7.640;2022-09-06T01:49:55;163.43;;;56.00;;
11835;SDS011;5977;51.972;7.640;2022-09-06T01:52:44;163.07;;;55.97;;
11835;SDS011;5977;51.972;7.640;2022-09-06T01:55:22;164.93;;;57.33;;
11835;SDS011;5977;51.972;7.640;2022-09-06T01:58:02;163.80;;;56.17;;
11835;SDS011;5977;51.972;7.640;2022-09-06T02:00:46;163.40;;;56.43;;
11835;SDS011;5977;51.972;7.640;2022-09-06T02:03:23;164.40;;;57.10;;
11835;SDS011;5977;51.972;7.640;2022-09-06T02:05:56;163.63;;;56.50;;
11835;SDS011;5977;51.972;7.640;2022-09-06T02:08:31;163.03;;;55.80;;
11835;SDS011;5977;51.972;7.640;2022-09-06T02:11:04;164.03;;;56.50;;
11835;SDS011;5977;51.972;7.640;2022-09-06T02:13:34;163.80;;;56.10;;
11835;SDS011;5977;51.972;7.640;2022-09-06T02:16:07;163.17;;;55.80;;
11835;SDS011;5977;51.972;7.640;2022-09-06T02:18:40;163.23;;;55.90;;
11835;SDS011;5977;51.972;7.640;2022-09-06T02:21:11;164.03;;;56.37;;
11835;SDS011;5977;51.972;7.640;2022-09-06T02:23:42;164.57;;;56.77;;
11835;SDS011;5977;51.972;7.640;2022-09-06T02:26:13;164.10;;;56.50;;
11835;SDS011;5977;51.972;7.640;2022-09-06T02:28:46;163.93;;;56.07;;
11835;SDS011;5977;51.972;7.640;2022-09-06T02:31:17;163.63;;;55.87;;
11835;SDS011;5977;51.972;7.640;2022-09-06T02:33:48;163.60;;;56.00;;
11835;SDS011;5977;51.972;7.640;2022-09-06T02:36:18;163.57;;;56.37;;
11835;SDS011;5977;51.972;7.640;2022-09-06T02:38:46;164.07;;;55.77;;
11835;SDS011;5977;51.972;7.640;2022-09-06T02:41:15;163.47;;;55.80;;
11835;SDS011;5977;51.972;7.640;2022-09-06T02:43:47;163.60;;;56.00;;
11835;SDS011;5977;51.972;7.640;2022-09-06T02:46:17;164.57;;;55.57;;
11835;SDS011;5977;51.972;7.640;2022-09-06T02:48:45;164.03;;;55.70;;
11835;SDS011;5977;51.972;7.640;2022-09-06T02:51:13;163.80;;;55.37;;
11835;SDS011;5977;51.972;7.640;2022-09-06T02:53:41;164.00;;;56.03;;
11835;SDS011;5977;51.972;7.640;2022-09-06T02:56:09;164.83;;;56.30;;
11835;SDS011;5977;51.972;7.640;2022-09-06T02:58:37;162.87;;;54.97;;
11835;SDS011;5977;51.972;7.640;2022-09-06T03:01:05;163.67;;;55.53;;
11835;SDS011;5977;51.972;7.640;2022-09-06T03:03:35;163.87;;;56.00;;
11835;SDS011;5977;51.972;7.640;2022-09-06T03:06:03;163.37;;;55.60;;
11835;SDS011;5977;51.972;7.640;2022-09-06T03:08:31;163.70;;;55.70;;
11835;SDS011;5977;51.972;7.640;2022-09-06T03:11:01;164.13;;;56.00;;
11835;SDS011;5977;51.972;7.640;2022-09-06T03:13:29;164.03;;;56.17;;
11835;SDS011;5977;51.972;7.640;2022-09-06T03:15:58;163.47;;;55.43;;
11835;SDS011;5977;51.972;7.640;2022-09-06T03:18:26;164.50;;;56.20;;
11835;SDS011;5977;51.972;7.640;2022-09-06T03:20:57;163.57;;;55.37;;
11835;SDS011;5977;51.972;7.640;2022-09-06T03:23:26;163.17;;;54.87;;
11835;SDS011;5977;51.972;7.640;2022-09-06T03:25:55;163.80;;;55.53;;
11835;SDS011;5977;51.972;7.640;2022-09-06T03:28:23;163.83;;;55.93;;
11835;SDS011;5977;51.972;7.640;2022-09-06T03:30:51;163.53;;;55.70;;
11835;SDS011;5977;51.972;7.640;2022-09-06T03:33:19;164.00;;;56.23;;
11835;SDS011;5977;51.972;7.640;2022-09-06T03:35:48;164.00;;;56.27;;
11835;SDS011;5977;51.972;7.640;2022-09-06T03:38:18;163.67;;;55.73;;
11835;SDS011;5977;51.972;7.640;2022-09-06T03:40:48;164.03;;;56.33;;
11835;SDS011;5977;51.972;7.640;2022-09-06T03:43:16;163.93;;;56.13;;
11835;SDS011;5977;51.972;7.640;2022-09-06T03:45:45;164.20;;;56.23;;
11835;SDS011;5977;51.972;7.640;2022-09-06T03:48:14;163.33;;;55.63;;
11835;SDS011;5977;51.972;7.640;2022-09-06T03:50:43;163.97;;;55.97;;
11835;SDS011;5977;51.972;7.640;2022-09-06T03:53:11;164.00;;;55.53;;
11835;SDS011;5977;51.972;7.640;2022-09-06T03:55:44;164.33;;;56.23;;
11835;SDS011;5977;51.972;7.640;2022-09-06T03:58:12;164.50;;;56.27;;
11835;SDS011;5977;51.972;7.640;2022-09-06T04:00:40;163.17;;;55.47;;
11835;SDS011;5977;51.972;7.640;2022-09-06T04:03:10;163.90;;;56.00;;
11835;SDS011;5977;51.972;7.640;2022-09-06T04:05:38;163.83;;;55.70;;
11835;SDS011;5977;51.972;7.640;2022-09-06T04:08:05;164.17;;;56.00;;
11835;SDS011;5977;51.972;7.640;2022-09-06T04:10:33;163.50;;;55.47;;
11835;SDS011;5977;51.972;7.640;2022-09-06T04:13:02;164.17;;;56.70;;
11835;SDS011;5977;51.972;7.640;2022-09-06T04:15:30;164.33;;;56.47;;
11835;SDS011;5977;51.972;7.640;2022-09-06T04:17:58;162.73;;;55.50;;
11835;SDS011;5977;51.972;7.640;2022-09-06T04:20:29;163.53;;;55.63;;
11835;SDS011;5977;51.972;7.640;2022-09-06T04:22:57;163.43;;;55.87;;
11835;SDS011;5977;51.972;7.640;2022-09-06T04:25:24;162.90;;;55.60;;
11835;SDS011;5977;51.972;7.640;2022-09-06T04:27:52;164.23;;;56.13;;
11835;SDS011;5977;51.972;7.640;2022-09-06T04:30:21;164.10;;;55.80;;
11835;SDS011;5977;51.972;7.640;2022-09-06T04:32:49;162.90;;;55.13;;
11835;SDS011;5977;51.972;7.640;2022-09-06T04:35:17;163.33;;;55.47;;
11835;SDS011;5977;51.972;7.640;2022-09-06T04:37:45;163.83;;;56.10;;
11835;SDS011;5977;51.972;7.640;2022-09-06T04:40:13;164.40;;;56.40;;
11835;SDS011;5977;51.972;7.640;2022-09-06T04:42:41;164.00;;;55.83;;
11835;SDS011;5977;51.972;7.640;2022-09-06T04:45:09;163.63;;;55.57;;
11835;SDS011;5977;51.972;7.640;2022-09-06T04:47:38;163.50;;;55.30;;
11835;SDS011;5977;51.972;7.640;2022-09-06T04:50:07;163.73;;;55.93;;
11835;SDS011;5977;51.972;7.640;2022-09-06T04:52:36;163.70;;;55.67;;
11835;SDS011;5977;51.972;7.640;2022-09-06T04:55:04;163.57;;;55.80;;
11835;SDS011;5977;51.972;7.640;2022-09-06T04:57:32;164.20;;;56.03;;
11835;SDS011;5977;51.972;7.640;2022-09-06T05:00:00;163.73;;;56.17;;
11835;SDS011;5977;51.972;7.640;2022-09-06T05:02:29;163.80;;;56.20;;
11835;SDS011;5977;51.972;7.640;2022-09-06T05:04:58;163.73;;;55.90;;
11835;SDS011;5977;51.972;7.640;2022-09-06T05:07:26;163.63;;;55.93;;
11835;SDS011;5977;51.972;7.640;2022-09-06T05:09:54;163.53;;;55.80;;
11835;SDS011;5977;51.972;7.640;2022-09-06T05:12:21;164.00;;;56.07;;
11835;SDS011;5977;51.972;7.640;2022-09-06T05:14:49;164.13;;;56.20;;
11835;SDS011;5977;51.972;7.640;2022-09-06T05:17:17;163.53;;;56.17;;
11835;SDS011;5977;51.972;7.640;2022-09-06T05:19:45;162.97;;;55.37;;
11835;SDS011;5977;51.972;7.640;2022-09-06T05:22:14;164.03;;;56.40;;
11835;SDS011;5977;51.972;7.640;2022-09-06T05:24:42;163.60;;;56.40;;
11835;SDS011;5977;51.972;7.640;2022-09-06T05:27:11;162.97;;;55.63;;
11835;SDS011;5977;51.972;7.640;2022-09-06T05:29:39;163.63;;;56.07;;
11835;SDS011;5977;51.972;7.640;2022-09-06T05:32:07;164.17;;;56.23;;
11835;SDS011;5977;51.972;7.640;2022-09-06T05:34:35;165.03;;;56.80;;
11835;SDS011;5977;51.972;7.640;2022-09-06T05:37:03;163.30;;;55.90;;
11835;SDS011;5977;51.972;7.640;2022-09-06T05:39:32;163.50;;;55.90;;
11835;SDS011;5977;51.972;7.640;2022-09-06T05:42:00;163.33;;;55.60;;
11835;SDS011;5977;51.972;7.640;2022-09-06T05:44:31;163.27;;;55.20;;
11835;SDS011;5977;51.972;7.640;2022-09-06T05:46:59;163.73;;;56.10;;
11835;SDS011;5977;51.972;7.640;2022-09-06T05:49:27;163.70;;;56.30;;
11835;SDS011;5977;51.972;7.640;2022-09-06T05:51:56;163.17;;;55.30;;
11835;SDS011;5977;51.972;7.640;2022-09-06T05:54:24;162.00;;;54.70;;
11835;SDS011;5977;51.972;7.640;2022-09-06T05:56:53;163.30;;;55.83;;
11835;SDS011;5977;51.972;7.640;2022-09-06T05:59:21;163.83;;;55.97;;
11835;SDS011;5977;51.972;7.640;2022-09-06T06:01:49;163.40;;;55.47;;
11835;SDS011;5977;51.972;7.640;2022-09-06T06:04:19;163.67;;;56.00;;
11835;SDS011;5977;51.972;7.640;2022-09-06T06:06:48;164.20;;;55.90;;
11835;SDS011;5977;51.972;7.640;2022-09-06T06:09:16;163.00;;;55.07;;
11835;SDS011;5977;51.972;7.640;2022-09-06T06:11:43;163.77;;;55.73;;
11835;SDS011;5977;51.972;7.640;2022-09-06T06:14:13;162.73;;;54.70;;
11835;SDS011;5977;51.972;7.640;2022-09-06T06:16:41;162.40;;;54.40;;
11835;SDS011;5977;51.972;7.640;2022-09-06T06:19:09;163.40;;;54.97;;
11835;SDS011;5977;51.972;7.640;2022-09-06T06:21:36;163.73;;;55.77;;
11835;SDS011;5977;51.972;7.640;2022-09-06T06:24:05;163.17;;;54.90;;
11835;SDS011;5977;51.972;7.640;2022-09-06T06:26:33;163.63;;;55.57;;
11835;SDS011;5977;51.972;7.640;2022-09-06T06:29:02;163.17;;;55.20;;
11835;SDS011;5977;51.972;7.640;2022-09-06T06:31:34;164.40;;;55.63;;
11835;SDS011;5977;51.972;7.640;2022-09-06T06:34:03;163.03;;;54.67;;
11835;SDS011;5977;51.972;7.640;2022-09-06T06:36:32;163.33;;;54.67;;
11835;SDS011;5977;51.972;7.640;2022-09-06T06:39:02;163.73;;;55.03;;
11835;SDS011;5977;51.972;7.640;2022-09-06T06:41:33;162.97;;;54.10;;
11835;SDS011;5977;51.972;7.640;2022-09-06T06:44:07;163.07;;;54.60;;
11835;SDS011;5977;51.972;7.640;2022-09-06T06:46:37;163.60;;;54.73;;
11835;SDS011;5977;51.972;7.640;2022-09-06T06:49:06;163.07;;;54.30;;
11835;SDS011;5977;51.972;7.640;2022-09-06T06:51:34;163.20;;;54.67;;
11835;SDS011;5977;51.972;7.640;2022-09-06T06:54:03;164.23;;;54.80;;
11835;SDS011;5977;51.972;7.640;2022-09-06T06:56:32;163.80;;;55.00;;
11835;SDS011;5977;51.972;7.640;2022-09-06T06:59:01;163.10;;;54.60;;
11835;SDS011;5977;51.972;7.640;2022-09-06T07:01:30;163.17;;;54.77;;
11835;SDS011;5977;51.972;7.640;2022-09-06T07:04:01;162.97;;;54.53;;
11835;SDS011;5977;51.972;7.640;2022-09-06T07:06:30;163.03;;;55.20;;
11835;SDS011;5977;51.972;7.640;2022-09-06T07:09:33;163.80;;;55.30;;
11835;SDS011;5977;51.972;7.640;2022-09-06T07:12:22;163.30;;;55.23;;
11835;SDS011;5977;51.972;7.640;2022-09-06T07:14:50;162.73;;;55.27;;
11835;SDS011;5977;51.972;7.640;2022-09-06T07:17:17;163.40;;;55.17;;
11835;SDS011;5977;51.972;7.640;2022-09-06T07:19:47;163.07;;;55.30;;
11835;SDS011;5977;51.972;7.640;2022-09-06T07:22:35;163.70;;;55.47;;
11835;SDS011;5977;51.972;7.640;2022-09-06T07:25:03;162.93;;;55.00;;
11835;SDS011;5977;51.972;7.640;2022-09-06T07:27:31;163.50;;;55.63;;
11835;SDS011;5977;51.972;7.640;2022-09-06T07:30:16;163.10;;;55.20;;
11835;SDS011;5977;51.972;7.640;2022-09-06T07:32:45;163.13;;;55.30;;
11835;SDS011;5977;51.972;7.640;2022-09-06T07:35:14;162.53;;;55.00;;
11835;SDS011;5977;51.972;7.640;2022-09-06T07:37:42;163.13;;;55.30;;
11835;SDS011;5977;51.972;7.640;2022-09-06T07:40:17;163.13;;;54.97;;
11835;SDS011;5977;51.972;7.640;2022-09-06T07:42:45;162.27;;;54.83;;
11835;SDS011;5977;51.972;7.640;2022-09-06T07:45:13;163.27;;;55.23;;
11835;SDS011;5977;51.972;7.640;2022-09-06T07:47:41;162.93;;;55.50;;
11835;SDS011;5977;51.972;7.640;2022-09-06T07:50:26;163.17;;;56.30;;
11835;SDS011;5977;51.972;7.640;2022-09-06T07:53:12;162.87;;;56.97;;
11835;SDS011;5977;51.972;7.640;2022-09-06T07:55:51;163.17;;;57.37;;
11835;SDS011;5977;51.972;7.640;2022-09-06T07:58:19;162.63;;;57.07;;
11835;SDS011;5977;51.972;7.640;2022-09-06T08:00:47;163.57;;;58.33;;
11835;SDS011;5977;51.972;7.640;2022-09-06T08:03:15;163.50;;;58.97;;
11835;SDS011;5977;51.972;7.640;2022-09-06T08:05:45;164.03;;;59.97;;
11835;SDS011;5977;51.972;7.640;2022-09-06T08:08:35;164.03;;;60.13;;
11835;SDS011;5977;51.972;7.640;2022-09-06T08:11:23;164.20;;;59.10;;
11835;SDS011;5977;51.972;7.640;2022-09-06T08:13:53;165.07;;;59.80;;
11835;SDS011;5977;51.972;7.640;2022-09-06T08:16:22;164.43;;;58.87;;
11835;SDS011;5977;51.972;7.640;2022-09-06T08:18:51;164.23;;;58.27;;
11835;SDS011;5977;51.972;7.640;2022-09-06T08:21:21;164.13;;;58.37;;
11835;SDS011;5977;51.972;7.640;2022-09-06T08:23:51;163.60;;;57.53;;
11835;SDS011;5977;51.972;7.640;2022-09-06T08:26:20;164.47;;;58.30;;
11835;SDS011;5977;51.972;7.640;2022-09-06T08:28:51;164.20;;;57.77;;
11835;SDS011;5977;51.972;7.640;2022-09-06T08:31:20;163.63;;;57.53;;
11835;SDS011;5977;51.972;7.640;2022-09-06T08:33:48;164.17;;;57.60;;
11835;SDS011;5977;51.972;7.640;2022-09-06T08:36:17;163.50;;;57.27;;
11835;SDS011;5977;51.972;7.640;2022-09-06T08:38:46;164.80;;;57.57;;
11835;SDS011;5977;51.972;7.640;2022-09-06T08:41:17;164.17;;;57.30;;
11835;SDS011;5977;51.972;7.640;2022-09-06T08:43:51;164.57;;;57.80;;
11835;SDS011;5977;51.972;7.640;2022-09-06T08:46:45;164.47;;;57.60;;
11835;SDS011;5977;51.972;7.640;2022-09-06T08:49:17;164.80;;;57.97;;
11835;SDS011;5977;51.972;7.640;2022-09-06T08:51:57;164.43;;;57.80;;
11835;SDS011;5977;51.972;7.640;2022-09-06T08:54:59;163.37;;;57.03;;
11835;SDS011;5977;51.972;7.640;2022-09-06T08:57:38;163.57;;;57.10;;
11835;SDS011;5977;51.972;7.640;2022-09-06T09:00:15;163.07;;;56.37;;
11835;SDS011;5977;51.972;7.640;2022-09-06T09:02:44;164.33;;;57.33;;
11835;SDS011;5977;51.972;7.640;2022-09-06T09:05:18;163.70;;;57.23;;
11835;SDS011;5977;51.972;7.640;2022-09-06T09:07:51;165.07;;;58.00;;
11835;SDS011;5977;51.972;7.640;2022-09-06T09:10:33;163.83;;;57.17;;
11835;SDS011;5977;51.972;7.640;2022-09-06T09:13:12;164.23;;;57.53;;
11835;SDS011;5977;51.972;7.640;2022-09-06T09:15:46;163.63;;;57.13;;
11835;SDS011;5977;51.972;7.640;2022-09-06T09:18:16;163.53;;;57.13;;
11835;SDS011;5977;51.972;7.640;2022-09-06T09:20:49;163.57;;;57.30;;
11835;SDS011;5977;51.972;7.640;2022-09-06T09:23:17;164.77;;;57.70;;
11835;SDS011;5977;51.972;7.640;2022-09-06T09:25:46;165.00;;;57.93;;
11835;SDS011;5977;51.972;7.640;2022-09-06T09:28:18;163.33;;;57.43;;
11835;SDS011;5977;51.972;7.640;2022-09-06T09:30:49;164.67;;;57.97;;
11835;SDS011;5977;51.972;7.640;2022-09-06T09:33:23;163.57;;;57.03;;
11835;SDS011;5977;51.972;7.640;2022-09-06T09:35:54;164.03;;;57.90;;
11835;SDS011;5977;51.972;7.640;2022-09-06T09:38:24;164.87;;;58.07;;
11835;SDS011;5977;51.972;7.640;2022-09-06T09:40:56;162.20;;;55.80;;
11835;SDS011;5977;51.972;7.640;2022-09-06T09:43:27;164.00;;;57.57;;
11835;SDS011;5977;51.972;7.640;2022-09-06T09:49:00;163.67;;;57.57;;
11835;SDS011;5977;51.972;7.640;2022-09-06T09:51:30;163.63;;;57.23;;
11835;SDS011;5977;51.972;7.640;2022-09-06T09:54:00;163.70;;;57.50;;
11835;SDS011;5977;51.972;7.640;2022-09-06T09:56:33;163.70;;;57.80;;
11835;SDS011;5977;51.972;7.640;2022-09-06T09:59:06;163.43;;;57.23;;
11835;SDS011;5977;51.972;7.640;2022-09-06T10:01:43;163.00;;;56.90;;
11835;SDS011;5977;51.972;7.640;2022-09-06T10:04:11;162.90;;;56.97;;
11835;SDS011;5977;51.972;7.640;2022-09-06T10:07:09;163.70;;;57.30;;
11835;SDS011;5977;51.972;7.640;2022-09-06T10:09:39;164.30;;;58.27;;
11835;SDS011;5977;51.972;7.640;2022-09-06T10:12:13;164.03;;;57.30;;
11835;SDS011;5977;51.972;7.640;2022-09-06T10:14:44;163.10;;;57.03;;
11835;SDS011;5977;51.972;7.640;2022-09-06T10:17:17;163.73;;;57.20;;
11835;SDS011;5977;51.972;7.640;2022-09-06T10:19:46;163.23;;;57.37;;
11835;SDS011;5977;51.972;7.640;2022-09-06T10:22:19;164.13;;;57.60;;
11835;SDS011;5977;51.972;7.640;2022-09-06T10:25:10;163.60;;;57.53;;
11835;SDS011;5977;51.972;7.640;2022-09-06T10:28:08;163.10;;;56.83;;
11835;SDS011;5977;51.972;7.640;2022-09-06T10:30:52;163.43;;;57.37;;
11835;SDS011;5977;51.972;7.640;2022-09-06T10:33:30;163.87;;;57.40;;
11835;SDS011;5977;51.972;7.640;2022-09-06T10:36:04;163.07;;;57.23;;
11835;SDS011;5977;51.972;7.640;2022-09-06T10:38:44;163.73;;;57.80;;
11835;SDS011;5977;51.972;7.640;2022-09-06T10:41:24;163.57;;;57.63;;
11835;SDS011;5977;51.972;7.640;2022-09-06T10:44:03;164.07;;;57.77;;
11835;SDS011;5977;51.972;7.640;2022-09-06T10:46:43;163.10;;;56.90;;
11835;SDS011;5977;51.972;7.640;2022-09-06T10:49:13;162.73;;;56.30;;
11835;SDS011;5977;51.972;7.640;2022-09-06T10:51:45;163.27;;;56.63;;
11835;SDS011;5977;51.972;7.640;2022-09-06T10:54:19;163.33;;;57.27;;
11835;SDS011;5977;51.972;7.640;2022-09-06T10:56:49;163.63;;;57.77;;
11835;SDS011;5977;51.972;7.640;2022-09-06T10:59:21;164.17;;;58.13;;
11835;SDS011;5977;51.972;7.640;2022-09-06T11:02:07;163.67;;;57.57;;
11835;SDS011;5977;51.972;7.640;2022-09-06T11:04:44;163.13;;;57.20;;
11835;SDS011;5977;51.972;7.640;2022-09-06T11:07:36;163.40;;;57.10;;
11835;SDS011;5977;51.972;7.640;2022-09-06T11:10:08;164.40;;;58.07;;
11835;SDS011;5977;51.972;7.640;2022-09-06T11:12:41;162.90;;;57.37;;
11835;SDS011;5977;51.972;7.640;2022-09-06T11:15:15;164.20;;;57.97;;
11835;SDS011;5977;51.972;7.640;2022-09-06T11:17:46;164.17;;;57.40;;
11835;SDS011;5977;51.972;7.640;2022-09-06T11:20:21;163.53;;;58.00;;
11835;SDS011;5977;51.972;7.640;2022-09-06T11:26:32;164.30;;;58.23;;
11835;SDS011;5977;51.972;7.640;2022-09-06T11:29:03;163.90;;;58.03;;
11835;SDS011;5977;51.972;7.640;2022-09-06T11:31:50;162.80;;;57.27;;
11835;SDS011;5977;51.972;7.640;2022-09-06T11:34:40;164.50;;;58.30;;
11835;SDS011;5977;51.972;7.640;2022-09-06T11:37:22;163.40;;;57.83;;
11835;SDS011;5977;51.972;7.640;2022-09-06T11:40:01;164.63;;;58.70;;
11835;SDS011;5977;51.972;7.640;2022-09-06T11:46:08;163.77;;;58.60;;
11835;SDS011;5977;51.972;7.640;2022-09-06T11:51:32;164.03;;;58.27;;
11835;SDS011;5977;51.972;7.640;2022-09-06T11:54:03;163.97;;;58.20;;
11835;SDS011;5977;51.972;7.640;2022-09-06T11:56:42;163.80;;;57.73;;
11835;SDS011;5977;51.972;7.640;2022-09-06T11:59:33;163.70;;;58.10;;
11835;SDS011;5977;51.972;7.640;2022-09-06T12:02:05;164.07;;;58.53;;
11835;SDS011;5977;51.972;7.640;2022-09-06T12:05:11;164.70;;;58.63;;
11835;SDS011;5977;51.972;7.640;2022-09-06T12:10:55;163.80;;;58.10;;
11835;SDS011;5977;51.972;7.640;2022-09-06T12:13:58;163.73;;;58.10;;
11835;SDS011;5977;51.972;7.640;2022-09-06T12:19:51;163.70;;;57.67;;
11835;SDS011;5977;51.972;7.640;2022-09-06T12:22:50;163.37;;;57.70;;
11835;SDS011;5977;51.972;7.640;2022-09-06T12:28:22;163.63;;;57.47;;
11835;SDS011;5977;51.972;7.640;2022-09-06T12:31:24;164.13;;;58.07;;
11835;SDS011;5977;51.972;7.640;2022-09-06T12:34:06;162.97;;;57.90;;
11835;SDS011;5977;51.972;7.640;2022-09-06T12:36:45;163.43;;;57.83;;
11835;SDS011;5977;51.972;7.640;2022-09-06T12:39:22;163.57;;;57.97;;
11835;SDS011;5977;51.972;7.640;2022-09-06T12:41:53;163.07;;;57.43;;
11835;SDS011;5977;51.972;7.640;2022-09-06T12:44:26;163.87;;;57.87;;
11835;SDS011;5977;51.972;7.640;2022-09-06T12:46:59;163.50;;;57.87;;
11835;SDS011;5977;51.972;7.640;2022-09-06T12:49:31;163.37;;;58.00;;
11835;SDS011;5977;51.972;7.640;2022-09-06T12:52:06;162.20;;;56.73;;
11835;SDS011;5977;51.972;7.640;2022-09-06T12:54:45;163.73;;;58.43;;
11835;SDS011;5977;51.972;7.640;2022-09-06T12:57:18;163.87;;;58.67;;
11835;SDS011;5977;51.972;7.640;2022-09-06T12:59:49;163.17;;;57.37;;
11835;SDS011;5977;51.972;7.640;2022-09-06T13:02:20;163.93;;;58.47;;
11835;SDS011;5977;51.972;7.640;2022-09-06T13:04:52;163.10;;;57.80;;
11835;SDS011;5977;51.972;7.640;2022-09-06T13:07:26;162.40;;;57.10;;
11835;SDS011;5977;51.972;7.640;2022-09-06T13:09:58;162.57;;;57.47;;
11835;SDS011;5977;51.972;7.640;2022-09-06T13:12:27;163.03;;;57.47;;
11835;SDS011;5977;51.972;7.640;2022-09-06T13:14:59;162.93;;;57.90;;
11835;SDS011;5977;51.972;7.640;2022-09-06T13:17:31;162.87;;;57.33;;
11835;SDS011;5977;51.972;7.640;2022-09-06T13:20:08;163.43;;;58.07;;
11835;SDS011;5977;51.972;7.640;2022-09-06T13:22:39;163.43;;;58.10;;
11835;SDS011;5977;51.972;7.640;2022-09-06T13:25:21;162.90;;;57.40;;
11835;SDS011;5977;51.972;7.640;2022-09-06T13:27:51;163.40;;;57.60;;
11835;SDS011;5977;51.972;7.640;2022-09-06T13:30:30;163.77;;;58.27;;
11835;SDS011;5977;51.972;7.640;2022-09-06T13:33:00;163.40;;;58.00;;
11835;SDS011;5977;51.972;7.640;2022-09-06T13:35:30;163.90;;;58.37;;
11835;SDS011;5977;51.972;7.640;2022-09-06T13:38:19;163.13;;;57.90;;
11835;SDS011;5977;51.972;7.640;2022-09-06T13:40:57;163.03;;;57.40;;
11835;SDS011;5977;51.972;7.640;2022-09-06T13:43:42;163.57;;;58.33;;
11835;SDS011;5977;51.972;7.640;2022-09-06T13:46:16;162.70;;;57.10;;
11835;SDS011;5977;51.972;7.640;2022-09-06T13:48:43;163.77;;;58.30;;
11835;SDS011;5977;51.972;7.640;2022-09-06T13:51:11;163.40;;;57.70;;
11835;SDS011;5977;51.972;7.640;2022-09-06T13:53:39;163.50;;;58.07;;
11835;SDS011;5977;51.972;7.640;2022-09-06T13:56:08;163.87;;;58.47;;
11835;SDS011;5977;51.972;7.640;2022-09-06T13:58:37;163.50;;;58.27;;
11835;SDS011;5977;51.972;7.640;2022-09-06T14:01:04;163.50;;;58.13;;
11835;SDS011;5977;51.972;7.640;2022-09-06T14:03:36;163.13;;;58.00;;
11835;SDS011;5977;51.972;7.640;2022-09-06T14:06:06;163.67;;;58.47;;
11835;SDS011;5977;51.972;7.640;2022-09-06T14:08:35;161.90;;;57.03;;
11835;SDS011;5977;51.972;7.640;2022-09-06T14:11:25;163.33;;;58.17;;
11835;SDS011;5977;51.972;7.640;2022-09-06T14:13:54;163.77;;;58.50;;
11835;SDS011;5977;51.972;7.640;2022-09-06T14:16:21;162.57;;;57.27;;
11835;SDS011;5977;51.972;7.640;2022-09-06T14:18:50;163.33;;;58.37;;
11835;SDS011;5977;51.972;7.640;2022-09-06T14:21:18;163.10;;;57.60;;
11835;SDS011;5977;51.972;7.640;2022-09-06T14:23:47;163.07;;;57.27;;
11835;SDS011;5977;51.972;7.640;2022-09-06T14:26:16;163.93;;;58.90;;
11835;SDS011;5977;51.972;7.640;2022-09-06T14:28:47;163.10;;;58.00;;
11835;SDS011;5977;51.972;7.640;2022-09-06T14:31:16;163.23;;;57.80;;
11835;SDS011;5977;51.972;7.640;2022-09-06T14:33:46;163.33;;;58.00;;
11835;SDS011;5977;51.972;7.640;2022-09-06T14:36:15;163.20;;;58.10;;
11835;SDS011;5977;51.972;7.640;2022-09-06T14:38:45;163.63;;;57.93;;
11835;SDS011;5977;51.972;7.640;2022-09-06T14:41:13;162.93;;;57.70;;
11835;SDS011;5977;51.972;7.640;2022-09-06T14:43:43;163.90;;;58.77;;
11835;SDS011;5977;51.972;7.640;2022-09-06T14:46:17;163.73;;;58.53;;
11835;SDS011;5977;51.972;7.640;2022-09-06T14:48:47;163.27;;;57.87;;
11835;SDS011;5977;51.972;7.640;2022-09-06T14:51:21;163.63;;;58.13;;
11835;SDS011;5977;51.972;7.640;2022-09-06T14:53:50;163.20;;;57.93;;
11835;SDS011;5977;51.972;7.640;2022-09-06T14:56:19;162.70;;;57.30;;
11835;SDS011;5977;51.972;7.640;2022-09-06T14:58:48;163.27;;;57.90;;
11835;SDS011;5977;51.972;7.640;2022-09-06T15:01:17;163.17;;;57.93;;
11835;SDS011;5977;51.972;7.640;2022-09-06T15:03:49;163.33;;;58.00;;
11835;SDS011;5977;51.972;7.640;2022-09-06T15:06:20;162.87;;;57.33;;
11835;SDS011;5977;51.972;7.640;2022-09-06T15:08:49;162.80;;;57.23;;
11835;SDS011;5977;51.972;7.640;2022-09-06T15:11:27;163.33;;;58.20;;
11835;SDS011;5977;51.972;7.640;2022-09-06T15:13:57;163.70;;;58.10;;
11835;SDS011;5977;51.972;7.640;2022-09-06T15:16:26;163.20;;;57.53;;
11835;SDS011;5977;51.972;7.640;2022-09-06T15:18:55;163.33;;;57.90;;